sensor_id;sensor_type;location;lat;lon;timestamp;temperature;humidity
65470;DHT22;52067;50.710;14.492;2023-01-08T00:00:29;1.30;91.66
65470;DHT22;52067;50.710;14.492;2023-01-08T00:02:55;1.36;91.61
65470;DHT22;52067;50.710;14.492;2023-01-08T00:05:20;1.29;91.58
65470;DHT22;52067;50.710;14.492;2023-01-08T00:07:45;1.18;91.74
65470;DHT22;52067;50.710;14.492;2023-01-08T00:10:11;1.13;91.61
65470;DHT22;52067;50.710;14.492;2023-01-08T00:12:36;1.06;91.71
65470;DHT22;52067;50.710;14.492;2023-01-08T00:15:02;1.25;91.94
65470;DHT22;52067;50.710;14.492;2023-01-08T00:17:28;1.43;91.99
65470;DHT22;52067;50.710;14.492;2023-01-08T00:19:53;1.15;91.75
65470;DHT22;52067;50.710;14.492;2023-01-08T00:22:18;1.19;91.74
65470;DHT22;52067;50.710;14.492;2023-01-08T00:24:44;1.29;91.84
65470;DHT22;52067;50.710;14.492;2023-01-08T00:27:09;1.44;92.03
65470;DHT22;52067;50.710;14.492;2023-01-08T00:29:34;1.56;92.20
65470;DHT22;52067;50.710;14.492;2023-01-08T00:32:02;1.61;92.14
65470;DHT22;52067;50.710;14.492;2023-01-08T00:34:27;1.22;92.13
65470;DHT22;52067;50.710;14.492;2023-01-08T00:36:52;1.53;91.95
65470;DHT22;52067;50.710;14.492;2023-01-08T00:39:18;1.36;92.09
65470;DHT22;52067;50.710;14.492;2023-01-08T00:41:43;1.23;91.86
65470;DHT22;52067;50.710;14.492;2023-01-08T00:44:09;1.28;91.92
65470;DHT22;52067;50.710;14.492;2023-01-08T00:46:35;1.35;91.86
65470;DHT22;52067;50.710;14.492;2023-01-08T00:49:00;1.46;91.89
65470;DHT22;52067;50.710;14.492;2023-01-08T00:51:26;1.64;91.92
65470;DHT22;52067;50.710;14.492;2023-01-08T00:53:51;1.47;91.76
65470;DHT22;52067;50.710;14.492;2023-01-08T00:56:17;1.29;91.67
65470;DHT22;52067;50.710;14.492;2023-01-08T00:58:42;1.29;91.64
65470;DHT22;52067;50.710;14.492;2023-01-08T01:01:09;1.29;91.80
65470;DHT22;52067;50.710;14.492;2023-01-08T01:03:35;1.43;91.76
65470;DHT22;52067;50.710;14.492;2023-01-08T01:06:01;1.67;91.99
65470;DHT22;52067;50.710;14.492;2023-01-08T01:08:27;1.88;92.01
65470;DHT22;52067;50.710;14.492;2023-01-08T01:10:52;2.09;92.00
65470;DHT22;52067;50.710;14.492;2023-01-08T01:13:18;2.12;91.83
65470;DHT22;52067;50.710;14.492;2023-01-08T01:15:55;2.16;91.18
65470;DHT22;52067;50.710;14.492;2023-01-08T01:18:20;1.88;91.37
65470;DHT22;52067;50.710;14.492;2023-01-08T01:20:46;1.54;91.25
65470;DHT22;52067;50.710;14.492;2023-01-08T01:23:11;1.53;91.42
65470;DHT22;52067;50.710;14.492;2023-01-08T01:25:36;1.75;91.41
65470;DHT22;52067;50.710;14.492;2023-01-08T01:28:02;1.87;91.52
65470;DHT22;52067;50.710;14.492;2023-01-08T01:30:27;2.02;91.75
65470;DHT22;52067;50.710;14.492;2023-01-08T01:32:53;2.33;91.97
65470;DHT22;52067;50.710;14.492;2023-01-08T01:35:19;2.54;92.00
65470;DHT22;52067;50.710;14.492;2023-01-08T01:37:44;2.47;91.84
65470;DHT22;52067;50.710;14.492;2023-01-08T01:40:09;2.68;91.71
65470;DHT22;52067;50.710;14.492;2023-01-08T01:42:35;2.63;91.31
65470;DHT22;52067;50.710;14.492;2023-01-08T01:45:22;2.91;91.51
65470;DHT22;52067;50.710;14.492;2023-01-08T01:50:30;3.17;91.17
65470;DHT22;52067;50.710;14.492;2023-01-08T01:53:04;3.21;91.15
65470;DHT22;52067;50.710;14.492;2023-01-08T01:55:32;3.14;90.49
65470;DHT22;52067;50.710;14.492;2023-01-08T02:00:35;3.18;90.53
65470;DHT22;52067;50.710;14.492;2023-01-08T02:03:01;3.07;90.51
65470;DHT22;52067;50.710;14.492;2023-01-08T02:05:33;2.97;91.23
65470;DHT22;52067;50.710;14.492;2023-01-08T02:08:12;3.21;91.38
65470;DHT22;52067;50.710;14.492;2023-01-08T02:10:47;3.43;91.67
65470;DHT22;52067;50.710;14.492;2023-01-08T02:13:21;3.65;91.78
65470;DHT22;52067;50.710;14.492;2023-01-08T02:16:25;3.86;91.62
65470;DHT22;52067;50.710;14.492;2023-01-08T02:18:57;3.93;91.55
65470;DHT22;52067;50.710;14.492;2023-01-08T02:24:19;4.17;91.10
65470;DHT22;52067;50.710;14.492;2023-01-08T02:26:48;4.05;90.69
65470;DHT22;52067;50.710;14.492;2023-01-08T02:29:20;3.86;90.52
65470;DHT22;52067;50.710;14.492;2023-01-08T02:31:48;4.03;90.51
65470;DHT22;52067;50.710;14.492;2023-01-08T02:34:13;4.03;90.35
65470;DHT22;52067;50.710;14.492;2023-01-08T02:36:51;4.07;90.38
65470;DHT22;52067;50.710;14.492;2023-01-08T02:39:28;4.17;90.98
65470;DHT22;52067;50.710;14.492;2023-01-08T02:47:04;4.30;91.23
65470;DHT22;52067;50.710;14.492;2023-01-08T02:49:33;4.32;91.13
65470;DHT22;52067;50.710;14.492;2023-01-08T02:52:02;4.30;91.06
65470;DHT22;52067;50.710;14.492;2023-01-08T02:54:32;4.27;91.20
65470;DHT22;52067;50.710;14.492;2023-01-08T02:57:13;4.24;91.35
65470;DHT22;52067;50.710;14.492;2023-01-08T02:59:40;4.34;91.40
65470;DHT22;52067;50.710;14.492;2023-01-08T03:02:07;4.28;91.34
65470;DHT22;52067;50.710;14.492;2023-01-08T03:04:48;4.27;91.41
65470;DHT22;52067;50.710;14.492;2023-01-08T03:07:15;4.24;91.50
65470;DHT22;52067;50.710;14.492;2023-01-08T03:09:41;4.31;91.49
65470;DHT22;52067;50.710;14.492;2023-01-08T03:12:17;4.30;91.50
65470;DHT22;52067;50.710;14.492;2023-01-08T03:15:06;4.37;91.45
65470;DHT22;52067;50.710;14.492;2023-01-08T03:17:35;4.40;91.32
65470;DHT22;52067;50.710;14.492;2023-01-08T03:20:07;4.37;91.31
65470;DHT22;52067;50.710;14.492;2023-01-08T03:22:38;4.48;91.29
65470;DHT22;52067;50.710;14.492;2023-01-08T03:25:05;4.61;91.21
65470;DHT22;52067;50.710;14.492;2023-01-08T03:27:36;4.53;90.99
65470;DHT22;52067;50.710;14.492;2023-01-08T03:30:03;4.71;91.10
65470;DHT22;52067;50.710;14.492;2023-01-08T03:32:30;4.48;91.00
65470;DHT22;52067;50.710;14.492;2023-01-08T03:34:58;4.53;91.06
65470;DHT22;52067;50.710;14.492;2023-01-08T03:37:29;4.51;91.11
65470;DHT22;52067;50.710;14.492;2023-01-08T03:40:30;4.59;91.07
65470;DHT22;52067;50.710;14.492;2023-01-08T03:42:58;4.63;90.86
65470;DHT22;52067;50.710;14.492;2023-01-08T03:45:25;4.49;90.82
65470;DHT22;52067;50.710;14.492;2023-01-08T03:47:52;4.49;91.24
65470;DHT22;52067;50.710;14.492;2023-01-08T03:50:21;4.46;91.15
65470;DHT22;52067;50.710;14.492;2023-01-08T03:52:47;4.65;91.19
65470;DHT22;52067;50.710;14.492;2023-01-08T03:55:13;4.79;91.02
65470;DHT22;52067;50.710;14.492;2023-01-08T03:57:38;4.79;90.85
65470;DHT22;52067;50.710;14.492;2023-01-08T04:00:04;4.83;90.80
65470;DHT22;52067;50.710;14.492;2023-01-08T04:02:30;4.97;90.61
65470;DHT22;52067;50.710;14.492;2023-01-08T04:04:55;5.01;90.50
65470;DHT22;52067;50.710;14.492;2023-01-08T04:07:21;5.07;90.16
65470;DHT22;52067;50.710;14.492;2023-01-08T04:09:46;5.01;89.96
65470;DHT22;52067;50.710;14.492;2023-01-08T04:12:12;5.03;90.14
65470;DHT22;52067;50.710;14.492;2023-01-08T04:14:37;5.13;89.91
65470;DHT22;52067;50.710;14.492;2023-01-08T04:17:02;5.17;89.81
65470;DHT22;52067;50.710;14.492;2023-01-08T04:19:28;5.13;89.76
65470;DHT22;52067;50.710;14.492;2023-01-08T04:21:53;5.13;89.68
65470;DHT22;52067;50.710;14.492;2023-01-08T04:24:19;5.03;89.58
65470;DHT22;52067;50.710;14.492;2023-01-08T04:26:44;5.01;89.89
65470;DHT22;52067;50.710;14.492;2023-01-08T04:29:11;4.90;90.02
65470;DHT22;52067;50.710;14.492;2023-01-08T04:31:37;4.86;90.19
65470;DHT22;52067;50.710;14.492;2023-01-08T04:34:02;4.82;90.42
65470;DHT22;52067;50.710;14.492;2023-01-08T04:36:28;4.89;90.44
65470;DHT22;52067;50.710;14.492;2023-01-08T04:38:53;4.82;90.56
65470;DHT22;52067;50.710;14.492;2023-01-08T04:41:22;4.83;90.56
65470;DHT22;52067;50.710;14.492;2023-01-08T04:43:47;4.80;90.52
65470;DHT22;52067;50.710;14.492;2023-01-08T04:46:12;4.87;90.55
65470;DHT22;52067;50.710;14.492;2023-01-08T04:48:38;4.84;90.29
65470;DHT22;52067;50.710;14.492;2023-01-08T04:51:04;5.00;90.26
65470;DHT22;52067;50.710;14.492;2023-01-08T04:53:33;4.83;90.35
65470;DHT22;52067;50.710;14.492;2023-01-08T04:56:03;4.80;90.56
65470;DHT22;52067;50.710;14.492;2023-01-08T04:58:29;4.73;90.74
65470;DHT22;52067;50.710;14.492;2023-01-08T05:00:54;4.68;90.99
65470;DHT22;52067;50.710;14.492;2023-01-08T05:03:20;4.51;91.20
65470;DHT22;52067;50.710;14.492;2023-01-08T05:05:45;4.52;91.40
65470;DHT22;52067;50.710;14.492;2023-01-08T05:08:10;4.52;91.34
65470;DHT22;52067;50.710;14.492;2023-01-08T05:10:36;4.58;91.38
65470;DHT22;52067;50.710;14.492;2023-01-08T05:13:01;4.55;91.45
65470;DHT22;52067;50.710;14.492;2023-01-08T05:15:27;4.59;91.35
65470;DHT22;52067;50.710;14.492;2023-01-08T05:18:03;4.61;91.35
65470;DHT22;52067;50.710;14.492;2023-01-08T05:20:29;4.66;91.29
65470;DHT22;52067;50.710;14.492;2023-01-08T05:22:55;4.56;91.35
65470;DHT22;52067;50.710;14.492;2023-01-08T05:25:22;4.65;91.33
65470;DHT22;52067;50.710;14.492;2023-01-08T05:27:48;4.65;91.33
65470;DHT22;52067;50.710;14.492;2023-01-08T05:30:13;4.63;91.24
65470;DHT22;52067;50.710;14.492;2023-01-08T05:32:39;4.51;91.29
65470;DHT22;52067;50.710;14.492;2023-01-08T05:35:05;4.56;91.32
65470;DHT22;52067;50.710;14.492;2023-01-08T05:37:33;4.61;91.31
65470;DHT22;52067;50.710;14.492;2023-01-08T05:39:58;4.51;91.33
65470;DHT22;52067;50.710;14.492;2023-01-08T05:42:24;4.53;91.25
65470;DHT22;52067;50.710;14.492;2023-01-08T05:44:49;4.48;91.30
65470;DHT22;52067;50.710;14.492;2023-01-08T05:47:14;4.44;91.33
65470;DHT22;52067;50.710;14.492;2023-01-08T05:49:40;4.35;91.44
65470;DHT22;52067;50.710;14.492;2023-01-08T05:52:06;4.35;91.55
65470;DHT22;52067;50.710;14.492;2023-01-08T05:54:31;4.34;91.52
65470;DHT22;52067;50.710;14.492;2023-01-08T05:56:56;4.31;91.55
65470;DHT22;52067;50.710;14.492;2023-01-08T05:59:22;4.35;91.53
65470;DHT22;52067;50.710;14.492;2023-01-08T06:01:47;4.32;91.54
65470;DHT22;52067;50.710;14.492;2023-01-08T06:04:12;4.30;91.52
65470;DHT22;52067;50.710;14.492;2023-01-08T06:06:38;4.35;91.52
65470;DHT22;52067;50.710;14.492;2023-01-08T06:09:03;4.38;91.46
65470;DHT22;52067;50.710;14.492;2023-01-08T06:11:28;4.21;91.40
65470;DHT22;52067;50.710;14.492;2023-01-08T06:13:54;4.30;91.56
65470;DHT22;52067;50.710;14.492;2023-01-08T06:16:19;4.30;91.46
65470;DHT22;52067;50.710;14.492;2023-01-08T06:18:45;4.30;91.37
65470;DHT22;52067;50.710;14.492;2023-01-08T06:21:11;4.22;91.63
65470;DHT22;52067;50.710;14.492;2023-01-08T06:23:38;4.17;91.64
65470;DHT22;52067;50.710;14.492;2023-01-08T06:26:03;4.24;91.61
65470;DHT22;52067;50.710;14.492;2023-01-08T06:28:29;4.11;91.63
65470;DHT22;52067;50.710;14.492;2023-01-08T06:30:59;4.07;91.68
65470;DHT22;52067;50.710;14.492;2023-01-08T06:33:25;4.05;91.73
65470;DHT22;52067;50.710;14.492;2023-01-08T06:35:50;3.94;91.91
65470;DHT22;52067;50.710;14.492;2023-01-08T06:38:16;3.89;91.87
65470;DHT22;52067;50.710;14.492;2023-01-08T06:40:47;4.04;91.86
65470;DHT22;52067;50.710;14.492;2023-01-08T06:43:12;4.03;91.75
65470;DHT22;52067;50.710;14.492;2023-01-08T06:45:38;4.04;91.65
65470;DHT22;52067;50.710;14.492;2023-01-08T06:48:05;3.91;91.66
65470;DHT22;52067;50.710;14.492;2023-01-08T06:50:31;4.00;91.75
65470;DHT22;52067;50.710;14.492;2023-01-08T06:52:57;3.97;91.88
65470;DHT22;52067;50.710;14.492;2023-01-08T06:55:23;4.04;91.91
65470;DHT22;52067;50.710;14.492;2023-01-08T06:57:53;4.08;91.80
65470;DHT22;52067;50.710;14.492;2023-01-08T07:00:19;4.13;91.73
65470;DHT22;52067;50.710;14.492;2023-01-08T07:02:46;4.11;91.71
65470;DHT22;52067;50.710;14.492;2023-01-08T07:05:11;4.13;91.68
65470;DHT22;52067;50.710;14.492;2023-01-08T07:07:37;4.13;91.59
65470;DHT22;52067;50.710;14.492;2023-01-08T07:10:02;4.22;91.58
65470;DHT22;52067;50.710;14.492;2023-01-08T07:12:28;4.08;91.43
65470;DHT22;52067;50.710;14.492;2023-01-08T07:14:53;4.18;91.59
65470;DHT22;52067;50.710;14.492;2023-01-08T07:17:19;4.35;91.53
65470;DHT22;52067;50.710;14.492;2023-01-08T07:19:44;4.30;91.37
65470;DHT22;52067;50.710;14.492;2023-01-08T07:22:09;4.34;91.33
65470;DHT22;52067;50.710;14.492;2023-01-08T07:24:35;4.41;91.31
65470;DHT22;52067;50.710;14.492;2023-01-08T07:27:00;4.51;91.20
65470;DHT22;52067;50.710;14.492;2023-01-08T07:29:25;4.59;91.02
65470;DHT22;52067;50.710;14.492;2023-01-08T07:31:52;4.71;90.85
65470;DHT22;52067;50.710;14.492;2023-01-08T07:34:17;4.52;90.78
65470;DHT22;52067;50.710;14.492;2023-01-08T07:36:42;4.41;91.08
65470;DHT22;52067;50.710;14.492;2023-01-08T07:39:08;4.55;91.13
65470;DHT22;52067;50.710;14.492;2023-01-08T07:41:33;4.66;91.11
65470;DHT22;52067;50.710;14.492;2023-01-08T07:43:59;4.73;90.83
65470;DHT22;52067;50.710;14.492;2023-01-08T07:46:24;4.75;90.70
65470;DHT22;52067;50.710;14.492;2023-01-08T07:48:49;4.61;90.98
65470;DHT22;52067;50.710;14.492;2023-01-08T07:51:15;4.55;90.87
65470;DHT22;52067;50.710;14.492;2023-01-08T07:53:40;4.42;90.93
65470;DHT22;52067;50.710;14.492;2023-01-08T07:56:07;4.66;90.99
65470;DHT22;52067;50.710;14.492;2023-01-08T07:58:34;4.73;90.76
65470;DHT22;52067;50.710;14.492;2023-01-08T08:00:59;4.82;90.57
65470;DHT22;52067;50.710;14.492;2023-01-08T08:03:25;4.80;90.64
65470;DHT22;52067;50.710;14.492;2023-01-08T08:05:51;4.87;90.50
65470;DHT22;52067;50.710;14.492;2023-01-08T08:08:17;4.86;90.59
65470;DHT22;52067;50.710;14.492;2023-01-08T08:10:43;5.00;90.35
65470;DHT22;52067;50.710;14.492;2023-01-08T08:13:09;5.06;90.03
65470;DHT22;52067;50.710;14.492;2023-01-08T08:15:36;5.00;89.95
65470;DHT22;52067;50.710;14.492;2023-01-08T08:18:05;4.71;90.52
65470;DHT22;52067;50.710;14.492;2023-01-08T08:20:33;4.83;90.54
65470;DHT22;52067;50.710;14.492;2023-01-08T08:23:04;4.73;90.41
65470;DHT22;52067;50.710;14.492;2023-01-08T08:25:30;4.69;90.71
65470;DHT22;52067;50.710;14.492;2023-01-08T08:28:03;4.65;90.52
65470;DHT22;52067;50.710;14.492;2023-01-08T08:30:35;4.46;90.81
65470;DHT22;52067;50.710;14.492;2023-01-08T08:33:03;4.38;91.13
65470;DHT22;52067;50.710;14.492;2023-01-08T08:35:32;4.51;91.20
65470;DHT22;52067;50.710;14.492;2023-01-08T08:38:03;4.75;91.09
65470;DHT22;52067;50.710;14.492;2023-01-08T08:40:31;4.86;90.76
65470;DHT22;52067;50.710;14.492;2023-01-08T08:43:04;5.06;90.26
65470;DHT22;52067;50.710;14.492;2023-01-08T08:45:45;5.21;89.96
65470;DHT22;52067;50.710;14.492;2023-01-08T08:48:15;5.21;89.64
65470;DHT22;52067;50.710;14.492;2023-01-08T08:51:01;5.17;89.48
65470;DHT22;52067;50.710;14.492;2023-01-08T08:53:30;5.09;89.54
65470;DHT22;52067;50.710;14.492;2023-01-08T08:56:13;5.16;89.56
65470;DHT22;52067;50.710;14.492;2023-01-08T08:58:48;5.20;89.63
65470;DHT22;52067;50.710;14.492;2023-01-08T09:01:33;5.23;89.55
65470;DHT22;52067;50.710;14.492;2023-01-08T09:04:08;5.21;89.16
65470;DHT22;52067;50.710;14.492;2023-01-08T09:09:25;5.13;89.35
65470;DHT22;52067;50.710;14.492;2023-01-08T09:11:58;4.97;90.08
65470;DHT22;52067;50.710;14.492;2023-01-08T09:14:50;5.09;89.89
65470;DHT22;52067;50.710;14.492;2023-01-08T09:17:28;5.00;89.95
65470;DHT22;52067;50.710;14.492;2023-01-08T09:20:07;5.16;89.80
65470;DHT22;52067;50.710;14.492;2023-01-08T09:22:37;5.19;89.68
65470;DHT22;52067;50.710;14.492;2023-01-08T09:25:21;5.26;89.61
65470;DHT22;52067;50.710;14.492;2023-01-08T09:28:12;5.42;89.45
65470;DHT22;52067;50.710;14.492;2023-01-08T09:30:57;5.42;89.03
65470;DHT22;52067;50.710;14.492;2023-01-08T09:33:27;5.20;90.20
65470;DHT22;52067;50.710;14.492;2023-01-08T09:36:00;5.37;89.46
65470;DHT22;52067;50.710;14.492;2023-01-08T09:38:28;5.23;89.47
65470;DHT22;52067;50.710;14.492;2023-01-08T09:41:05;5.16;89.76
65470;DHT22;52067;50.710;14.492;2023-01-08T09:43:36;5.07;89.75
65470;DHT22;52067;50.710;14.492;2023-01-08T09:46:06;5.09;89.90
65470;DHT22;52067;50.710;14.492;2023-01-08T09:48:43;5.11;90.10
65470;DHT22;52067;50.710;14.492;2023-01-08T09:51:14;5.09;89.97
65470;DHT22;52067;50.710;14.492;2023-01-08T09:53:40;4.99;90.20
65470;DHT22;52067;50.710;14.492;2023-01-08T09:56:14;5.04;90.27
65470;DHT22;52067;50.710;14.492;2023-01-08T09:58:45;5.03;90.45
65470;DHT22;52067;50.710;14.492;2023-01-08T10:01:15;4.97;90.34
65470;DHT22;52067;50.710;14.492;2023-01-08T10:03:56;5.16;90.16
65470;DHT22;52067;50.710;14.492;2023-01-08T10:06:23;5.07;90.27
65470;DHT22;52067;50.710;14.492;2023-01-08T10:08:50;4.92;90.41
65470;DHT22;52067;50.710;14.492;2023-01-08T10:11:16;4.96;90.35
65470;DHT22;52067;50.710;14.492;2023-01-08T10:13:49;4.97;90.67
65470;DHT22;52067;50.710;14.492;2023-01-08T10:18:49;5.17;90.08
65470;DHT22;52067;50.710;14.492;2023-01-08T10:21:16;4.97;90.18
65470;DHT22;52067;50.710;14.492;2023-01-08T10:23:50;5.06;90.32
65470;DHT22;52067;50.710;14.492;2023-01-08T10:26:30;5.11;90.26
65470;DHT22;52067;50.710;14.492;2023-01-08T10:29:17;5.19;90.04
65470;DHT22;52067;50.710;14.492;2023-01-08T10:31:49;5.14;90.05
65470;DHT22;52067;50.710;14.492;2023-01-08T10:36:53;5.07;90.22
65470;DHT22;52067;50.710;14.492;2023-01-08T10:39:25;5.11;90.06
65470;DHT22;52067;50.710;14.492;2023-01-08T10:41:53;5.21;89.71
65470;DHT22;52067;50.710;14.492;2023-01-08T10:44:20;5.31;89.62
65470;DHT22;52067;50.710;14.492;2023-01-08T10:46:49;5.30;89.23
65470;DHT22;52067;50.710;14.492;2023-01-08T10:49:31;5.24;89.30
65470;DHT22;52067;50.710;14.492;2023-01-08T10:51:58;5.34;89.43
65470;DHT22;52067;50.710;14.492;2023-01-08T10:54:35;5.28;89.51
65470;DHT22;52067;50.710;14.492;2023-01-08T10:57:02;5.32;89.41
65470;DHT22;52067;50.710;14.492;2023-01-08T10:59:28;5.35;89.22
65470;DHT22;52067;50.710;14.492;2023-01-08T11:01:55;5.30;89.29
65470;DHT22;52067;50.710;14.492;2023-01-08T11:04:32;5.19;89.83
65470;DHT22;52067;50.710;14.492;2023-01-08T11:07:00;5.28;89.50
65470;DHT22;52067;50.710;14.492;2023-01-08T11:09:31;5.17;89.72
65470;DHT22;52067;50.710;14.492;2023-01-08T11:11:58;5.03;90.01
65470;DHT22;52067;50.710;14.492;2023-01-08T11:14:32;5.07;89.94
65470;DHT22;52067;50.710;14.492;2023-01-08T11:16:59;5.04;90.23
65470;DHT22;52067;50.710;14.492;2023-01-08T11:19:34;5.13;89.82
65470;DHT22;52067;50.710;14.492;2023-01-08T11:22:02;4.99;89.92
65470;DHT22;52067;50.710;14.492;2023-01-08T11:24:33;4.97;89.75
65470;DHT22;52067;50.710;14.492;2023-01-08T11:27:15;4.97;90.15
65470;DHT22;52067;50.710;14.492;2023-01-08T11:29:50;4.96;89.80
65470;DHT22;52067;50.710;14.492;2023-01-08T11:35:17;4.92;90.08
65470;DHT22;52067;50.710;14.492;2023-01-08T11:40:14;4.90;89.92
65470;DHT22;52067;50.710;14.492;2023-01-08T12:02:19;4.66;90.76
65470;DHT22;52067;50.710;14.492;2023-01-08T12:07:41;4.53;90.63
65470;DHT22;52067;50.710;14.492;2023-01-08T12:13:31;4.63;90.35
65470;DHT22;52067;50.710;14.492;2023-01-08T12:21:31;4.59;90.36
65470;DHT22;52067;50.710;14.492;2023-01-08T12:26:52;4.82;90.30
65470;DHT22;52067;50.710;14.492;2023-01-08T12:32:45;4.83;90.00
65470;DHT22;52067;50.710;14.492;2023-01-08T12:35:24;4.83;90.08
65470;DHT22;52067;50.710;14.492;2023-01-08T12:38:05;4.94;89.82
65470;DHT22;52067;50.710;14.492;2023-01-08T12:40:48;4.82;89.48
65470;DHT22;52067;50.710;14.492;2023-01-08T12:43:21;4.96;89.48
65470;DHT22;52067;50.710;14.492;2023-01-08T12:45:51;4.93;89.59
65470;DHT22;52067;50.710;14.492;2023-01-08T12:48:26;4.86;89.63
65470;DHT22;52067;50.710;14.492;2023-01-08T12:51:23;4.86;89.71
65470;DHT22;52067;50.710;14.492;2023-01-08T12:56:25;4.90;89.68
65470;DHT22;52067;50.710;14.492;2023-01-08T13:01:56;4.97;89.45
65470;DHT22;52067;50.710;14.492;2023-01-08T13:04:23;5.06;89.41
65470;DHT22;52067;50.710;14.492;2023-01-08T13:06:51;4.82;89.50
65470;DHT22;52067;50.710;14.492;2023-01-08T13:09:22;5.01;89.49
65470;DHT22;52067;50.710;14.492;2023-01-08T13:11:54;5.04;89.40
65470;DHT22;52067;50.710;14.492;2023-01-08T13:14:20;4.83;89.53
65470;DHT22;52067;50.710;14.492;2023-01-08T13:17:00;4.73;89.90
65470;DHT22;52067;50.710;14.492;2023-01-08T13:19:28;4.84;89.67
65470;DHT22;52067;50.710;14.492;2023-01-08T13:21:56;4.84;89.75
65470;DHT22;52067;50.710;14.492;2023-01-08T13:24:38;5.00;89.28
65470;DHT22;52067;50.710;14.492;2023-01-08T13:27:11;4.94;89.66
65470;DHT22;52067;50.710;14.492;2023-01-08T13:29:43;4.90;89.47
65470;DHT22;52067;50.710;14.492;2023-01-08T13:32:43;4.83;89.70
65470;DHT22;52067;50.710;14.492;2023-01-08T13:37:46;4.87;89.69
65470;DHT22;52067;50.710;14.492;2023-01-08T13:45:36;4.93;89.31
65470;DHT22;52067;50.710;14.492;2023-01-08T13:48:02;4.96;89.07
65470;DHT22;52067;50.710;14.492;2023-01-08T13:50:28;4.97;88.92
65470;DHT22;52067;50.710;14.492;2023-01-08T13:55:27;4.99;88.80
65470;DHT22;52067;50.710;14.492;2023-01-08T13:57:57;4.99;88.99
65470;DHT22;52067;50.710;14.492;2023-01-08T14:05:47;5.09;88.84
65470;DHT22;52067;50.710;14.492;2023-01-08T14:08:23;5.10;88.70
65470;DHT22;52067;50.710;14.492;2023-01-08T14:10:50;5.06;88.73
65470;DHT22;52067;50.710;14.492;2023-01-08T14:13:16;5.06;88.79
65470;DHT22;52067;50.710;14.492;2023-01-08T14:15:42;5.14;88.66
65470;DHT22;52067;50.710;14.492;2023-01-08T14:18:10;5.21;88.33
65470;DHT22;52067;50.710;14.492;2023-01-08T14:20:38;5.30;87.96
65470;DHT22;52067;50.710;14.492;2023-01-08T14:23:15;5.13;87.97
65470;DHT22;52067;50.710;14.492;2023-01-08T14:25:48;4.89;88.38
65470;DHT22;52067;50.710;14.492;2023-01-08T14:28:16;4.92;88.93
65470;DHT22;52067;50.710;14.492;2023-01-08T14:30:54;4.94;88.80
65470;DHT22;52067;50.710;14.492;2023-01-08T14:33:23;5.03;88.17
65470;DHT22;52067;50.710;14.492;2023-01-08T14:35:51;5.13;87.99
65470;DHT22;52067;50.710;14.492;2023-01-08T14:38:17;5.11;88.53
65470;DHT22;52067;50.710;14.492;2023-01-08T14:41:31;5.03;88.24
65470;DHT22;52067;50.710;14.492;2023-01-08T14:43:45;5.10;88.31
65470;DHT22;52067;50.710;14.492;2023-01-08T14:46:20;5.10;88.15
65470;DHT22;52067;50.710;14.492;2023-01-08T14:48:47;5.07;88.24
65470;DHT22;52067;50.710;14.492;2023-01-08T14:51:14;5.06;88.37
65470;DHT22;52067;50.710;14.492;2023-01-08T14:53:47;4.97;88.51
65470;DHT22;52067;50.710;14.492;2023-01-08T14:56:17;5.07;88.62
65470;DHT22;52067;50.710;14.492;2023-01-08T14:58:44;5.01;88.59
65470;DHT22;52067;50.710;14.492;2023-01-08T15:01:15;5.13;88.33
65470;DHT22;52067;50.710;14.492;2023-01-08T15:03:43;5.07;88.12
65470;DHT22;52067;50.710;14.492;2023-01-08T15:06:09;4.99;88.41
65470;DHT22;52067;50.710;14.492;2023-01-08T15:08:42;4.97;88.73
65470;DHT22;52067;50.710;14.492;2023-01-08T15:13:42;4.96;88.53
65470;DHT22;52067;50.710;14.492;2023-01-08T15:16:18;4.96;88.65
65470;DHT22;52067;50.710;14.492;2023-01-08T15:21:29;4.94;88.69
65470;DHT22;52067;50.710;14.492;2023-01-08T15:23:55;5.00;88.70
65470;DHT22;52067;50.710;14.492;2023-01-08T15:26:22;4.92;88.43
65470;DHT22;52067;50.710;14.492;2023-01-08T15:28:59;4.94;88.37
65470;DHT22;52067;50.710;14.492;2023-01-08T15:31:28;4.96;88.35
65470;DHT22;52067;50.710;14.492;2023-01-08T15:33:55;4.89;88.18
65470;DHT22;52067;50.710;14.492;2023-01-08T15:36:20;4.93;88.47
65470;DHT22;52067;50.710;14.492;2023-01-08T15:38:46;4.99;88.08
65470;DHT22;52067;50.710;14.492;2023-01-08T15:41:17;4.97;88.19
65470;DHT22;52067;50.710;14.492;2023-01-08T15:44:03;5.01;88.03
65470;DHT22;52067;50.710;14.492;2023-01-08T15:46:29;4.93;88.31
65470;DHT22;52067;50.710;14.492;2023-01-08T15:48:55;4.94;88.51
65470;DHT22;52067;50.710;14.492;2023-01-08T15:51:20;4.99;88.23
65470;DHT22;52067;50.710;14.492;2023-01-08T15:53:46;4.97;88.48
65470;DHT22;52067;50.710;14.492;2023-01-08T15:56:11;4.97;88.33
65470;DHT22;52067;50.710;14.492;2023-01-08T15:58:37;5.01;88.05
65470;DHT22;52067;50.710;14.492;2023-01-08T16:01:02;5.11;87.95
65470;DHT22;52067;50.710;14.492;2023-01-08T16:03:28;5.14;87.60
65470;DHT22;52067;50.710;14.492;2023-01-08T16:05:55;5.21;87.57
65470;DHT22;52067;50.710;14.492;2023-01-08T16:08:20;5.16;87.73
65470;DHT22;52067;50.710;14.492;2023-01-08T16:10:53;5.17;87.84
65470;DHT22;52067;50.710;14.492;2023-01-08T16:13:18;5.26;87.88
65470;DHT22;52067;50.710;14.492;2023-01-08T16:15:43;5.28;87.56
65470;DHT22;52067;50.710;14.492;2023-01-08T16:18:09;5.35;87.55
65470;DHT22;52067;50.710;14.492;2023-01-08T16:20:34;5.42;87.55
65470;DHT22;52067;50.710;14.492;2023-01-08T16:23:00;5.50;87.54
65470;DHT22;52067;50.710;14.492;2023-01-08T16:25:25;5.47;87.64
65470;DHT22;52067;50.710;14.492;2023-01-08T16:27:51;5.58;87.55
65470;DHT22;52067;50.710;14.492;2023-01-08T16:30:16;5.73;87.21
65470;DHT22;52067;50.710;14.492;2023-01-08T16:32:42;5.69;86.88
65470;DHT22;52067;50.710;14.492;2023-01-08T16:35:09;5.71;86.70
65470;DHT22;52067;50.710;14.492;2023-01-08T16:37:35;5.68;87.91
65470;DHT22;52067;50.710;14.492;2023-01-08T16:40:00;5.83;87.56
65470;DHT22;52067;50.710;14.492;2023-01-08T16:42:26;5.89;87.54
65470;DHT22;52067;50.710;14.492;2023-01-08T16:44:51;5.65;87.64
65470;DHT22;52067;50.710;14.492;2023-01-08T16:47:17;5.72;87.87
65470;DHT22;52067;50.710;14.492;2023-01-08T16:49:42;5.62;88.02
65470;DHT22;52067;50.710;14.492;2023-01-08T16:52:08;5.61;88.37
65470;DHT22;52067;50.710;14.492;2023-01-08T16:54:34;5.61;88.39
65470;DHT22;52067;50.710;14.492;2023-01-08T16:56:59;5.55;88.43
65470;DHT22;52067;50.710;14.492;2023-01-08T16:59:24;5.63;88.57
65470;DHT22;52067;50.710;14.492;2023-01-08T17:01:51;5.52;88.80
65470;DHT22;52067;50.710;14.492;2023-01-08T17:04:17;5.69;88.77
65470;DHT22;52067;50.710;14.492;2023-01-08T17:06:43;5.54;88.62
65470;DHT22;52067;50.710;14.492;2023-01-08T17:09:08;5.52;88.96
65470;DHT22;52067;50.710;14.492;2023-01-08T17:11:34;5.44;88.97